sensor_id;sensor_type;location;lat;lon;timestamp;temperature;humidity
5868;DHT22;2960;49.142;7.768;2023-07-22T00:01:00;18.00;53.40
5868;DHT22;2960;49.142;7.768;2023-07-22T00:03:27;18.00;53.50
5868;DHT22;2960;49.142;7.768;2023-07-22T00:06:05;18.00;53.50
5868;DHT22;2960;49.142;7.768;2023-07-22T00:08:33;18.00;53.50
5868;DHT22;2960;49.142;7.768;2023-07-22T00:11:01;18.00;53.50
5868;DHT22;2960;49.142;7.768;2023-07-22T00:13:28;18.00;54.20
5868;DHT22;2960;49.142;7.768;2023-07-22T00:15:56;18.00;53.60
5868;DHT22;2960;49.142;7.768;2023-07-22T00:18:24;18.00;53.70
5868;DHT22;2960;49.142;7.768;2023-07-22T00:20:53;18.00;54.30
5868;DHT22;2960;49.142;7.768;2023-07-22T00:23:23;18.00;53.80
5868;DHT22;2960;49.142;7.768;2023-07-22T00:25:51;18.00;53.80
5868;DHT22;2960;49.142;7.768;2023-07-22T00:28:18;18.00;53.90
5868;DHT22;2960;49.142;7.768;2023-07-22T00:30:45;18.00;54.50
5868;DHT22;2960;49.142;7.768;2023-07-22T00:33:14;18.00;54.00
5868;DHT22;2960;49.142;7.768;2023-07-22T00:35:42;17.90;54.00
5868;DHT22;2960;49.142;7.768;2023-07-22T00:38:09;17.90;54.20
5868;DHT22;2960;49.142;7.768;2023-07-22T00:40:37;17.90;54.30
5868;DHT22;2960;49.142;7.768;2023-07-22T00:43:05;17.90;54.70
5868;DHT22;2960;49.142;7.768;2023-07-22T00:45:33;17.90;54.50
5868;DHT22;2960;49.142;7.768;2023-07-22T00:48:00;17.80;54.50
5868;DHT22;2960;49.142;7.768;2023-07-22T00:50:27;17.80;54.50
5868;DHT22;2960;49.142;7.768;2023-07-22T00:52:54;17.90;54.60
5868;DHT22;2960;49.142;7.768;2023-07-22T00:55:21;17.80;54.70
5868;DHT22;2960;49.142;7.768;2023-07-22T00:57:50;17.80;54.80
5868;DHT22;2960;49.142;7.768;2023-07-22T01:00:18;17.70;54.70
5868;DHT22;2960;49.142;7.768;2023-07-22T01:02:45;17.70;55.40
5868;DHT22;2960;49.142;7.768;2023-07-22T01:05:12;17.70;54.90
5868;DHT22;2960;49.142;7.768;2023-07-22T01:07:39;17.70;55.00
5868;DHT22;2960;49.142;7.768;2023-07-22T01:10:07;17.70;55.00
5868;DHT22;2960;49.142;7.768;2023-07-22T01:12:35;17.70;55.00
5868;DHT22;2960;49.142;7.768;2023-07-22T01:15:04;17.70;55.10
5868;DHT22;2960;49.142;7.768;2023-07-22T01:17:34;17.60;55.00
5868;DHT22;2960;49.142;7.768;2023-07-22T01:20:02;17.70;55.10
5868;DHT22;2960;49.142;7.768;2023-07-22T01:22:30;17.70;55.10
5868;DHT22;2960;49.142;7.768;2023-07-22T01:25:00;17.60;55.10
5868;DHT22;2960;49.142;7.768;2023-07-22T01:27:27;17.70;55.20
5868;DHT22;2960;49.142;7.768;2023-07-22T01:29:55;17.60;55.70
5868;DHT22;2960;49.142;7.768;2023-07-22T01:32:22;17.60;55.10
5868;DHT22;2960;49.142;7.768;2023-07-22T01:34:49;17.60;55.20
5868;DHT22;2960;49.142;7.768;2023-07-22T01:37:16;17.60;55.20
5868;DHT22;2960;49.142;7.768;2023-07-22T01:39:44;17.60;55.30
5868;DHT22;2960;49.142;7.768;2023-07-22T01:42:13;17.60;55.30
5868;DHT22;2960;49.142;7.768;2023-07-22T01:44:40;17.50;55.40
5868;DHT22;2960;49.142;7.768;2023-07-22T01:47:07;17.40;55.30
5868;DHT22;2960;49.142;7.768;2023-07-22T01:49:34;17.50;56.10
5868;DHT22;2960;49.142;7.768;2023-07-22T01:52:01;17.40;55.50
5868;DHT22;2960;49.142;7.768;2023-07-22T01:54:29;17.40;55.50
5868;DHT22;2960;49.142;7.768;2023-07-22T01:56:56;17.30;55.50
5868;DHT22;2960;49.142;7.768;2023-07-22T01:59:24;17.30;55.60
5868;DHT22;2960;49.142;7.768;2023-07-22T02:01:51;17.30;55.60
5868;DHT22;2960;49.142;7.768;2023-07-22T02:04:19;17.30;55.70
5868;DHT22;2960;49.142;7.768;2023-07-22T02:06:46;17.20;55.70
5868;DHT22;2960;49.142;7.768;2023-07-22T02:09:13;17.20;56.20
5868;DHT22;2960;49.142;7.768;2023-07-22T02:11:40;17.20;55.70
5868;DHT22;2960;49.142;7.768;2023-07-22T02:14:07;17.20;55.80
5868;DHT22;2960;49.142;7.768;2023-07-22T02:16:36;17.10;55.70
5868;DHT22;2960;49.142;7.768;2023-07-22T02:19:03;17.10;55.80
5868;DHT22;2960;49.142;7.768;2023-07-22T02:21:31;17.10;55.90
5868;DHT22;2960;49.142;7.768;2023-07-22T02:23:58;17.10;55.90
5868;DHT22;2960;49.142;7.768;2023-07-22T02:26:25;17.00;55.80
5868;DHT22;2960;49.142;7.768;2023-07-22T02:28:52;17.00;55.90
5868;DHT22;2960;49.142;7.768;2023-07-22T02:31:20;17.00;55.90
5868;DHT22;2960;49.142;7.768;2023-07-22T02:33:49;17.00;56.00
5868;DHT22;2960;49.142;7.768;2023-07-22T02:36:17;16.90;56.00
5868;DHT22;2960;49.142;7.768;2023-07-22T02:38:44;16.90;56.00
5868;DHT22;2960;49.142;7.768;2023-07-22T02:41:11;16.90;56.10
5868;DHT22;2960;49.142;7.768;2023-07-22T02:43:38;16.90;56.10
5868;DHT22;2960;49.142;7.768;2023-07-22T02:46:06;16.90;56.20
5868;DHT22;2960;49.142;7.768;2023-07-22T02:48:33;16.80;56.10
5868;DHT22;2960;49.142;7.768;2023-07-22T02:51:06;16.80;56.30
5868;DHT22;2960;49.142;7.768;2023-07-22T02:53:35;16.70;56.30
5868;DHT22;2960;49.142;7.768;2023-07-22T02:56:04;16.70;56.40
5868;DHT22;2960;49.142;7.768;2023-07-22T02:58:32;16.60;56.40
5868;DHT22;2960;49.142;7.768;2023-07-22T03:01:00;16.60;56.50
5868;DHT22;2960;49.142;7.768;2023-07-22T03:03:27;16.60;56.50
5868;DHT22;2960;49.142;7.768;2023-07-22T03:05:54;16.60;56.60
5868;DHT22;2960;49.142;7.768;2023-07-22T03:08:24;16.50;56.50
5868;DHT22;2960;49.142;7.768;2023-07-22T03:10:51;16.50;56.50
5868;DHT22;2960;49.142;7.768;2023-07-22T03:13:18;16.50;56.60
5868;DHT22;2960;49.142;7.768;2023-07-22T03:15:45;16.50;56.60
5868;DHT22;2960;49.142;7.768;2023-07-22T03:18:13;16.50;56.70
5868;DHT22;2960;49.142;7.768;2023-07-22T03:20:40;16.40;56.60
5868;DHT22;2960;49.142;7.768;2023-07-22T03:23:08;16.40;57.20
5868;DHT22;2960;49.142;7.768;2023-07-22T03:25:36;16.40;57.30
5868;DHT22;2960;49.142;7.768;2023-07-22T03:28:04;16.30;56.80
5868;DHT22;2960;49.142;7.768;2023-07-22T03:30:32;16.30;56.80
5868;DHT22;2960;49.142;7.768;2023-07-22T03:33:00;16.30;56.80
5868;DHT22;2960;49.142;7.768;2023-07-22T03:35:27;16.30;56.80
5868;DHT22;2960;49.142;7.768;2023-07-22T03:37:55;16.20;57.00
5868;DHT22;2960;49.142;7.768;2023-07-22T03:40:23;16.20;56.90
5868;DHT22;2960;49.142;7.768;2023-07-22T03:42:57;16.20;56.90
5868;DHT22;2960;49.142;7.768;2023-07-22T03:45:24;16.10;57.00
5868;DHT22;2960;49.142;7.768;2023-07-22T03:47:53;16.10;57.10
5868;DHT22;2960;49.142;7.768;2023-07-22T03:50:23;16.10;57.10
5868;DHT22;2960;49.142;7.768;2023-07-22T03:52:50;16.10;57.20
5868;DHT22;2960;49.142;7.768;2023-07-22T03:55:17;16.00;57.10
5868;DHT22;2960;49.142;7.768;2023-07-22T03:57:45;16.00;57.10
5868;DHT22;2960;49.142;7.768;2023-07-22T04:00:14;16.00;57.10
5868;DHT22;2960;49.142;7.768;2023-07-22T04:02:41;16.00;57.20
5868;DHT22;2960;49.142;7.768;2023-07-22T04:05:09;16.00;57.20
5868;DHT22;2960;49.142;7.768;2023-07-22T04:07:36;16.00;57.30
5868;DHT22;2960;49.142;7.768;2023-07-22T04:10:04;15.90;57.20
5868;DHT22;2960;49.142;7.768;2023-07-22T04:12:32;15.90;57.40
5868;DHT22;2960;49.142;7.768;2023-07-22T04:14:59;15.90;57.40
5868;DHT22;2960;49.142;7.768;2023-07-22T04:17:28;15.80;57.40
5868;DHT22;2960;49.142;7.768;2023-07-22T04:19:55;15.80;57.50
5868;DHT22;2960;49.142;7.768;2023-07-22T04:22:23;15.80;57.50
5868;DHT22;2960;49.142;7.768;2023-07-22T04:24:50;15.80;57.60
5868;DHT22;2960;49.142;7.768;2023-07-22T04:27:17;15.80;57.60
5868;DHT22;2960;49.142;7.768;2023-07-22T04:29:45;15.80;57.70
5868;DHT22;2960;49.142;7.768;2023-07-22T04:32:12;15.80;57.70
5868;DHT22;2960;49.142;7.768;2023-07-22T04:34:41;15.80;58.30
5868;DHT22;2960;49.142;7.768;2023-07-22T04:37:08;15.80;57.70
5868;DHT22;2960;49.142;7.768;2023-07-22T04:39:36;15.80;58.30
5868;DHT22;2960;49.142;7.768;2023-07-22T04:42:04;15.80;57.80
5868;DHT22;2960;49.142;7.768;2023-07-22T04:44:31;15.80;57.80
5868;DHT22;2960;49.142;7.768;2023-07-22T04:46:58;15.80;57.90
5868;DHT22;2960;49.142;7.768;2023-07-22T04:49:25;15.80;57.90
5868;DHT22;2960;49.142;7.768;2023-07-22T04:51:54;15.80;57.90
5868;DHT22;2960;49.142;7.768;2023-07-22T04:54:21;15.80;57.90
5868;DHT22;2960;49.142;7.768;2023-07-22T04:56:48;15.90;58.10
5868;DHT22;2960;49.142;7.768;2023-07-22T04:59:15;15.90;58.10
5868;DHT22;2960;49.142;7.768;2023-07-22T05:01:42;15.90;58.00
5868;DHT22;2960;49.142;7.768;2023-07-22T05:04:10;16.00;58.00
5868;DHT22;2960;49.142;7.768;2023-07-22T05:06:37;16.00;58.00
5868;DHT22;2960;49.142;7.768;2023-07-22T05:09:04;16.10;58.00
5868;DHT22;2960;49.142;7.768;2023-07-22T05:11:32;16.10;58.50
5868;DHT22;2960;49.142;7.768;2023-07-22T05:13:59;16.20;58.10
5868;DHT22;2960;49.142;7.768;2023-07-22T05:16:26;16.20;58.10
5868;DHT22;2960;49.142;7.768;2023-07-22T05:18:54;16.30;58.70
5868;DHT22;2960;49.142;7.768;2023-07-22T05:21:21;16.30;58.20
5868;DHT22;2960;49.142;7.768;2023-07-22T05:23:50;16.40;58.70
5868;DHT22;2960;49.142;7.768;2023-07-22T05:26:18;16.40;58.20
5868;DHT22;2960;49.142;7.768;2023-07-22T05:28:45;16.50;58.20
5868;DHT22;2960;49.142;7.768;2023-07-22T05:31:12;16.60;58.30
5868;DHT22;2960;49.142;7.768;2023-07-22T05:33:40;16.60;58.20
5868;DHT22;2960;49.142;7.768;2023-07-22T05:36:07;16.70;58.20
5868;DHT22;2960;49.142;7.768;2023-07-22T05:38:34;16.70;58.70
5868;DHT22;2960;49.142;7.768;2023-07-22T05:41:01;16.80;58.20
5868;DHT22;2960;49.142;7.768;2023-07-22T05:43:29;16.80;58.20
5868;DHT22;2960;49.142;7.768;2023-07-22T05:45:57;16.90;58.80
5868;DHT22;2960;49.142;7.768;2023-07-22T05:48:24;16.90;58.20
5868;DHT22;2960;49.142;7.768;2023-07-22T05:50:51;16.90;58.20
5868;DHT22;2960;49.142;7.768;2023-07-22T05:53:18;17.00;58.20
5868;DHT22;2960;49.142;7.768;2023-07-22T05:55:45;17.00;58.20
5868;DHT22;2960;49.142;7.768;2023-07-22T05:58:16;17.00;58.10
5868;DHT22;2960;49.142;7.768;2023-07-22T06:00:45;17.10;58.20
5868;DHT22;2960;49.142;7.768;2023-07-22T06:03:12;17.10;58.10
5868;DHT22;2960;49.142;7.768;2023-07-22T06:05:40;17.20;58.10
5868;DHT22;2960;49.142;7.768;2023-07-22T06:08:07;17.30;58.10
5868;DHT22;2960;49.142;7.768;2023-07-22T06:10:34;17.30;58.00
5868;DHT22;2960;49.142;7.768;2023-07-22T06:13:03;17.40;58.10
5868;DHT22;2960;49.142;7.768;2023-07-22T06:15:30;17.40;58.00
5868;DHT22;2960;49.142;7.768;2023-07-22T06:17:59;17.50;58.00
5868;DHT22;2960;49.142;7.768;2023-07-22T06:20:26;17.60;58.00
5868;DHT22;2960;49.142;7.768;2023-07-22T06:22:53;17.70;57.90
5868;DHT22;2960;49.142;7.768;2023-07-22T06:25:21;17.80;57.90
5868;DHT22;2960;49.142;7.768;2023-07-22T06:27:48;17.90;57.80
5868;DHT22;2960;49.142;7.768;2023-07-22T06:30:15;18.00;58.30
5868;DHT22;2960;49.142;7.768;2023-07-22T06:32:42;18.20;57.80
5868;DHT22;2960;49.142;7.768;2023-07-22T06:35:11;18.30;57.70
5868;DHT22;2960;49.142;7.768;2023-07-22T06:37:38;18.40;57.70
5868;DHT22;2960;49.142;7.768;2023-07-22T06:40:06;18.50;57.60
5868;DHT22;2960;49.142;7.768;2023-07-22T06:42:34;18.60;57.60
5868;DHT22;2960;49.142;7.768;2023-07-22T06:45:01;18.70;57.50
5868;DHT22;2960;49.142;7.768;2023-07-22T06:47:29;18.80;57.40
5868;DHT22;2960;49.142;7.768;2023-07-22T06:49:56;19.00;57.40
5868;DHT22;2960;49.142;7.768;2023-07-22T06:52:24;19.10;57.30
5868;DHT22;2960;49.142;7.768;2023-07-22T06:54:51;19.20;57.30
5868;DHT22;2960;49.142;7.768;2023-07-22T06:57:19;19.30;57.20
5868;DHT22;2960;49.142;7.768;2023-07-22T06:59:47;19.40;57.10
5868;DHT22;2960;49.142;7.768;2023-07-22T07:02:16;19.50;57.00
5868;DHT22;2960;49.142;7.768;2023-07-22T07:04:43;19.60;56.90
5868;DHT22;2960;49.142;7.768;2023-07-22T07:07:10;19.70;57.00
5868;DHT22;2960;49.142;7.768;2023-07-22T07:09:39;19.80;56.90
5868;DHT22;2960;49.142;7.768;2023-07-22T07:12:08;19.90;56.80
5868;DHT22;2960;49.142;7.768;2023-07-22T07:14:35;20.00;56.70
5868;DHT22;2960;49.142;7.768;2023-07-22T07:17:02;20.10;56.60
5868;DHT22;2960;49.142;7.768;2023-07-22T07:19:30;20.20;56.60
5868;DHT22;2960;49.142;7.768;2023-07-22T07:21:57;20.30;56.40
5868;DHT22;2960;49.142;7.768;2023-07-22T07:24:24;20.40;56.40
5868;DHT22;2960;49.142;7.768;2023-07-22T07:26:54;20.50;56.30
5868;DHT22;2960;49.142;7.768;2023-07-22T07:29:21;20.60;56.30
5868;DHT22;2960;49.142;7.768;2023-07-22T07:31:48;20.70;56.10
5868;DHT22;2960;49.142;7.768;2023-07-22T07:34:15;20.80;56.00
5868;DHT22;2960;49.142;7.768;2023-07-22T07:36:43;21.00;56.00
5868;DHT22;2960;49.142;7.768;2023-07-22T07:39:10;21.00;55.90
5868;DHT22;2960;49.142;7.768;2023-07-22T07:41:37;21.10;55.90
5868;DHT22;2960;49.142;7.768;2023-07-22T07:44:06;21.20;55.80
5868;DHT22;2960;49.142;7.768;2023-07-22T07:46:33;21.30;55.70
5868;DHT22;2960;49.142;7.768;2023-07-22T07:49:01;21.40;56.10
5868;DHT22;2960;49.142;7.768;2023-07-22T07:51:30;21.60;55.50
5868;DHT22;2960;49.142;7.768;2023-07-22T07:53:58;21.70;55.40
5868;DHT22;2960;49.142;7.768;2023-07-22T07:56:26;21.80;55.20
5868;DHT22;2960;49.142;7.768;2023-07-22T07:58:54;21.90;55.10
5868;DHT22;2960;49.142;7.768;2023-07-22T08:01:23;21.90;54.70
5868;DHT22;2960;49.142;7.768;2023-07-22T08:03:50;22.00;54.60
5868;DHT22;2960;49.142;7.768;2023-07-22T08:06:17;22.10;54.50
5868;DHT22;2960;49.142;7.768;2023-07-22T08:08:44;22.10;54.90
5868;DHT22;2960;49.142;7.768;2023-07-22T08:11:13;22.20;54.30
5868;DHT22;2960;49.142;7.768;2023-07-22T08:13:41;22.20;54.00
5868;DHT22;2960;49.142;7.768;2023-07-22T08:16:11;22.30;53.90
5868;DHT22;2960;49.142;7.768;2023-07-22T08:18:40;22.30;53.80
5868;DHT22;2960;49.142;7.768;2023-07-22T08:21:08;22.40;54.20
5868;DHT22;2960;49.142;7.768;2023-07-22T08:23:36;22.40;53.40
5868;DHT22;2960;49.142;7.768;2023-07-22T08:26:03;22.50;53.40
5868;DHT22;2960;49.142;7.768;2023-07-22T08:28:31;22.50;53.90
5868;DHT22;2960;49.142;7.768;2023-07-22T08:30:59;22.60;53.30
5868;DHT22;2960;49.142;7.768;2023-07-22T08:33:27;22.70;53.20
5868;DHT22;2960;49.142;7.768;2023-07-22T08:35:55;22.80;53.10
5868;DHT22;2960;49.142;7.768;2023-07-22T08:38:22;22.90;52.90
5868;DHT22;2960;49.142;7.768;2023-07-22T08:40:51;23.00;52.80
5868;DHT22;2960;49.142;7.768;2023-07-22T08:43:20;23.20;52.80
5868;DHT22;2960;49.142;7.768;2023-07-22T08:45:49;23.30;52.40
5868;DHT22;2960;49.142;7.768;2023-07-22T08:48:19;23.30;52.10
5868;DHT22;2960;49.142;7.768;2023-07-22T08:50:52;23.40;52.00
5868;DHT22;2960;49.142;7.768;2023-07-22T08:53:21;23.50;51.90
5868;DHT22;2960;49.142;7.768;2023-07-22T08:55:51;23.50;51.60
5868;DHT22;2960;49.142;7.768;2023-07-22T08:58:18;23.60;51.60
5868;DHT22;2960;49.142;7.768;2023-07-22T09:00:47;23.60;51.10
5868;DHT22;2960;49.142;7.768;2023-07-22T09:03:16;23.60;50.90
5868;DHT22;2960;49.142;7.768;2023-07-22T09:05:44;23.70;50.90
5868;DHT22;2960;49.142;7.768;2023-07-22T09:08:12;23.70;50.80
5868;DHT22;2960;49.142;7.768;2023-07-22T09:10:40;23.80;51.30
5868;DHT22;2960;49.142;7.768;2023-07-22T09:13:08;23.90;50.80
5868;DHT22;2960;49.142;7.768;2023-07-22T09:15:36;24.00;50.60
5868;DHT22;2960;49.142;7.768;2023-07-22T09:18:04;24.10;50.30
5868;DHT22;2960;49.142;7.768;2023-07-22T09:20:31;24.30;50.10
5868;DHT22;2960;49.142;7.768;2023-07-22T09:22:59;24.40;49.90
5868;DHT22;2960;49.142;7.768;2023-07-22T09:25:28;24.50;49.70
5868;DHT22;2960;49.142;7.768;2023-07-22T09:27:58;24.60;49.50
5868;DHT22;2960;49.142;7.768;2023-07-22T09:30:27;24.70;49.30
5868;DHT22;2960;49.142;7.768;2023-07-22T09:32:55;24.80;49.10
5868;DHT22;2960;49.142;7.768;2023-07-22T09:37:56;25.10;48.40
5868;DHT22;2960;49.142;7.768;2023-07-22T09:40:25;25.10;48.30
5868;DHT22;2960;49.142;7.768;2023-07-22T09:42:53;25.20;48.10
5868;DHT22;2960;49.142;7.768;2023-07-22T09:45:24;25.20;47.50
5868;DHT22;2960;49.142;7.768;2023-07-22T09:47:53;25.10;47.50
5868;DHT22;2960;49.142;7.768;2023-07-22T09:50:23;25.10;47.40
5868;DHT22;2960;49.142;7.768;2023-07-22T09:52:52;25.20;47.40
5868;DHT22;2960;49.142;7.768;2023-07-22T09:55:20;25.20;47.00
5868;DHT22;2960;49.142;7.768;2023-07-22T09:57:50;25.20;46.90
5868;DHT22;2960;49.142;7.768;2023-07-22T10:00:21;25.20;46.50
5868;DHT22;2960;49.142;7.768;2023-07-22T10:02:52;25.20;46.50
5868;DHT22;2960;49.142;7.768;2023-07-22T10:05:20;25.20;46.30
5868;DHT22;2960;49.142;7.768;2023-07-22T10:07:49;25.30;46.10
5868;DHT22;2960;49.142;7.768;2023-07-22T10:10:19;25.40;46.00
5868;DHT22;2960;49.142;7.768;2023-07-22T10:12:47;25.40;45.80
5868;DHT22;2960;49.142;7.768;2023-07-22T10:15:15;25.50;45.50
5868;DHT22;2960;49.142;7.768;2023-07-22T10:17:50;25.50;45.10
5868;DHT22;2960;49.142;7.768;2023-07-22T10:20:19;25.50;44.90
5868;DHT22;2960;49.142;7.768;2023-07-22T10:22:47;25.50;45.00
5868;DHT22;2960;49.142;7.768;2023-07-22T10:25:16;25.50;45.00
5868;DHT22;2960;49.142;7.768;2023-07-22T10:27:44;25.50;44.90
5868;DHT22;2960;49.142;7.768;2023-07-22T10:30:14;25.60;44.90
5868;DHT22;2960;49.142;7.768;2023-07-22T10:32:44;25.70;44.60
5868;DHT22;2960;49.142;7.768;2023-07-22T10:35:34;25.80;44.60
5868;DHT22;2960;49.142;7.768;2023-07-22T10:38:08;25.80;44.50
5868;DHT22;2960;49.142;7.768;2023-07-22T10:40:44;25.90;44.10
5868;DHT22;2960;49.142;7.768;2023-07-22T10:43:14;26.10;44.00
5868;DHT22;2960;49.142;7.768;2023-07-22T10:45:50;26.10;43.70
5868;DHT22;2960;49.142;7.768;2023-07-22T10:48:19;26.30;43.00
5868;DHT22;2960;49.142;7.768;2023-07-22T10:50:49;26.30;42.30
5868;DHT22;2960;49.142;7.768;2023-07-22T10:53:27;26.40;42.10
5868;DHT22;2960;49.142;7.768;2023-07-22T10:56:06;26.40;42.20
5868;DHT22;2960;49.142;7.768;2023-07-22T10:58:58;26.40;41.00
5868;DHT22;2960;49.142;7.768;2023-07-22T11:01:37;26.40;40.90
5868;DHT22;2960;49.142;7.768;2023-07-22T11:04:21;26.40;40.80
5868;DHT22;2960;49.142;7.768;2023-07-22T11:06:58;26.20;40.60
5868;DHT22;2960;49.142;7.768;2023-07-22T11:09:39;26.10;40.30
5868;DHT22;2960;49.142;7.768;2023-07-22T11:12:11;26.10;40.70
5868;DHT22;2960;49.142;7.768;2023-07-22T11:14:46;26.10;40.90
5868;DHT22;2960;49.142;7.768;2023-07-22T11:17:15;26.10;40.80
5868;DHT22;2960;49.142;7.768;2023-07-22T11:19:43;26.10;40.70
5868;DHT22;2960;49.142;7.768;2023-07-22T11:22:16;26.20;41.20
5868;DHT22;2960;49.142;7.768;2023-07-22T11:24:43;26.30;40.10
5868;DHT22;2960;49.142;7.768;2023-07-22T11:27:10;26.30;40.60
5868;DHT22;2960;49.142;7.768;2023-07-22T11:29:40;26.30;40.30
5868;DHT22;2960;49.142;7.768;2023-07-22T11:32:15;26.40;40.50
5868;DHT22;2960;49.142;7.768;2023-07-22T11:34:42;26.50;40.40
5868;DHT22;2960;49.142;7.768;2023-07-22T11:37:11;26.60;40.30
5868;DHT22;2960;49.142;7.768;2023-07-22T11:39:40;26.70;40.30
5868;DHT22;2960;49.142;7.768;2023-07-22T11:42:09;26.80;40.00
5868;DHT22;2960;49.142;7.768;2023-07-22T11:44:37;26.90;39.80
5868;DHT22;2960;49.142;7.768;2023-07-22T11:47:05;27.00;39.70
5868;DHT22;2960;49.142;7.768;2023-07-22T11:49:36;27.00;39.80
5868;DHT22;2960;49.142;7.768;2023-07-22T11:52:05;27.00;39.20
5868;DHT22;2960;49.142;7.768;2023-07-22T11:54:35;26.90;39.20
5868;DHT22;2960;49.142;7.768;2023-07-22T11:57:13;26.90;39.00
5868;DHT22;2960;49.142;7.768;2023-07-22T11:59:44;26.90;39.10
5868;DHT22;2960;49.142;7.768;2023-07-22T12:02:16;26.90;39.00
5868;DHT22;2960;49.142;7.768;2023-07-22T12:04:52;26.90;38.80
5868;DHT22;2960;49.142;7.768;2023-07-22T12:07:27;26.90;38.70
5868;DHT22;2960;49.142;7.768;2023-07-22T12:09:56;26.80;38.50
5868;DHT22;2960;49.142;7.768;2023-07-22T12:12:33;26.90;38.60
5868;DHT22;2960;49.142;7.768;2023-07-22T12:15:08;26.90;39.30
5868;DHT22;2960;49.142;7.768;2023-07-22T12:17:50;27.00;38.80
5868;DHT22;2960;49.142;7.768;2023-07-22T12:20:25;27.00;38.70
5868;DHT22;2960;49.142;7.768;2023-07-22T12:22:53;27.10;38.60
5868;DHT22;2960;49.142;7.768;2023-07-22T12:25:20;27.20;38.40
5868;DHT22;2960;49.142;7.768;2023-07-22T12:27:49;27.20;38.10
5868;DHT22;2960;49.142;7.768;2023-07-22T12:30:16;27.20;38.20
5868;DHT22;2960;49.142;7.768;2023-07-22T12:32:46;27.20;38.20
5868;DHT22;2960;49.142;7.768;2023-07-22T12:35:13;27.30;38.10
5868;DHT22;2960;49.142;7.768;2023-07-22T12:37:41;27.30;38.00
5868;DHT22;2960;49.142;7.768;2023-07-22T12:40:09;27.30;37.50
5868;DHT22;2960;49.142;7.768;2023-07-22T12:42:37;27.30;37.40
5868;DHT22;2960;49.142;7.768;2023-07-22T12:45:08;27.30;37.50
5868;DHT22;2960;49.142;7.768;2023-07-22T12:47:37;27.30;37.60
5868;DHT22;2960;49.142;7.768;2023-07-22T12:50:06;27.30;37.70
5868;DHT22;2960;49.142;7.768;2023-07-22T12:52:34;27.20;37.50
5868;DHT22;2960;49.142;7.768;2023-07-22T12:55:01;27.20;37.70
5868;DHT22;2960;49.142;7.768;2023-07-22T12:57:29;27.20;37.70
5868;DHT22;2960;49.142;7.768;2023-07-22T12:59:56;27.10;37.80
5868;DHT22;2960;49.142;7.768;2023-07-22T13:02:24;27.10;37.80
5868;DHT22;2960;49.142;7.768;2023-07-22T13:04:51;27.10;37.80
5868;DHT22;2960;49.142;7.768;2023-07-22T13:07:19;27.00;37.70
5868;DHT22;2960;49.142;7.768;2023-07-22T13:09:46;27.10;38.00
5868;DHT22;2960;49.142;7.768;2023-07-22T13:12:15;27.10;38.00
5868;DHT22;2960;49.142;7.768;2023-07-22T13:14:45;27.10;37.80
5868;DHT22;2960;49.142;7.768;2023-07-22T13:17:13;27.10;37.80
5868;DHT22;2960;49.142;7.768;2023-07-22T13:19:42;27.10;37.80
5868;DHT22;2960;49.142;7.768;2023-07-22T13:22:09;27.10;37.90
5868;DHT22;2960;49.142;7.768;2023-07-22T13:24:36;27.10;37.80
5868;DHT22;2960;49.142;7.768;2023-07-22T13:27:03;27.10;37.80
5868;DHT22;2960;49.142;7.768;2023-07-22T13:29:31;27.20;37.80
5868;DHT22;2960;49.142;7.768;2023-07-22T13:31:58;27.20;37.60
5868;DHT22;2960;49.142;7.768;2023-07-22T13:34:25;27.20;37.40
5868;DHT22;2960;49.142;7.768;2023-07-22T13:36:54;27.20;37.30
5868;DHT22;2960;49.142;7.768;2023-07-22T13:39:21;27.20;37.30
5868;DHT22;2960;49.142;7.768;2023-07-22T13:41:48;27.10;37.40
5868;DHT22;2960;49.142;7.768;2023-07-22T13:44:15;27.10;38.20
5868;DHT22;2960;49.142;7.768;2023-07-22T13:46:43;27.10;37.60
5868;DHT22;2960;49.142;7.768;2023-07-22T13:49:10;27.10;37.60
5868;DHT22;2960;49.142;7.768;2023-07-22T13:51:37;27.10;38.30
5868;DHT22;2960;49.142;7.768;2023-07-22T13:54:05;27.10;38.00
5868;DHT22;2960;49.142;7.768;2023-07-22T13:56:32;27.10;37.90
5868;DHT22;2960;49.142;7.768;2023-07-22T13:59:00;27.10;37.80
5868;DHT22;2960;49.142;7.768;2023-07-22T14:01:29;27.10;37.50
5868;DHT22;2960;49.142;7.768;2023-07-22T14:03:57;27.00;37.50
5868;DHT22;2960;49.142;7.768;2023-07-22T14:06:24;27.10;37.60
5868;DHT22;2960;49.142;7.768;2023-07-22T14:08:51;27.10;37.60
5868;DHT22;2960;49.142;7.768;2023-07-22T14:11:19;27.10;37.40
5868;DHT22;2960;49.142;7.768;2023-07-22T14:13:46;27.00;37.40
5868;DHT22;2960;49.142;7.768;2023-07-22T14:16:13;27.00;37.40
5868;DHT22;2960;49.142;7.768;2023-07-22T14:18:40;27.10;37.50
5868;DHT22;2960;49.142;7.768;2023-07-22T14:21:08;27.10;37.50
5868;DHT22;2960;49.142;7.768;2023-07-22T14:23:36;27.10;37.20
5868;DHT22;2960;49.142;7.768;2023-07-22T14:26:03;27.10;37.30
5868;DHT22;2960;49.142;7.768;2023-07-22T14:28:32;27.10;37.20
5868;DHT22;2960;49.142;7.768;2023-07-22T14:30:59;27.10;37.10
5868;DHT22;2960;49.142;7.768;2023-07-22T14:33:26;27.10;37.10
5868;DHT22;2960;49.142;7.768;2023-07-22T14:35:53;27.10;37.10
5868;DHT22;2960;49.142;7.768;2023-07-22T14:38:20;27.10;37.10
5868;DHT22;2960;49.142;7.768;2023-07-22T14:40:47;27.10;37.00
5868;DHT22;2960;49.142;7.768;2023-07-22T14:43:14;27.10;37.70
5868;DHT22;2960;49.142;7.768;2023-07-22T14:45:42;27.10;37.70
5868;DHT22;2960;49.142;7.768;2023-07-22T14:48:09;27.10;37.10
5868;DHT22;2960;49.142;7.768;2023-07-22T14:50:36;27.10;37.10
5868;DHT22;2960;49.142;7.768;2023-07-22T14:53:03;27.00;36.90
5868;DHT22;2960;49.142;7.768;2023-07-22T14:55:30;27.00;36.90
5868;DHT22;2960;49.142;7.768;2023-07-22T14:57:57;27.00;37.60
5868;DHT22;2960;49.142;7.768;2023-07-22T15:00:24;27.00;37.60
5868;DHT22;2960;49.142;7.768;2023-07-22T15:02:53;27.00;36.70
5868;DHT22;2960;49.142;7.768;2023-07-22T15:05:20;27.00;36.60
5868;DHT22;2960;49.142;7.768;2023-07-22T15:07:47;27.00;36.70
5868;DHT22;2960;49.142;7.768;2023-07-22T15:10:14;26.90;36.70
5868;DHT22;2960;49.142;7.768;2023-07-22T15:12:42;26.90;36.90
5868;DHT22;2960;49.142;7.768;2023-07-22T15:15:11;26.90;37.00
5868;DHT22;2960;49.142;7.768;2023-07-22T15:17:38;26.90;36.80
5868;DHT22;2960;49.142;7.768;2023-07-22T15:20:07;26.90;36.90
5868;DHT22;2960;49.142;7.768;2023-07-22T15:22:35;26.90;36.80
5868;DHT22;2960;49.142;7.768;2023-07-22T15:25:03;26.90;36.80
5868;DHT22;2960;49.142;7.768;2023-07-22T15:27:31;26.80;36.60
5868;DHT22;2960;49.142;7.768;2023-07-22T15:29:58;26.80;36.70
5868;DHT22;2960;49.142;7.768;2023-07-22T15:32:25;26.80;36.60
5868;DHT22;2960;49.142;7.768;2023-07-22T15:34:52;26.80;36.60
5868;DHT22;2960;49.142;7.768;2023-07-22T15:37:21;26.90;36.80
5868;DHT22;2960;49.142;7.768;2023-07-22T15:39:48;26.80;36.70
5868;DHT22;2960;49.142;7.768;2023-07-22T15:42:15;26.80;36.70
5868;DHT22;2960;49.142;7.768;2023-07-22T15:44:43;26.80;36.70
5868;DHT22;2960;49.142;7.768;2023-07-22T15:47:10;26.80;36.40
5868;DHT22;2960;49.142;7.768;2023-07-22T15:49:37;26.80;36.40
5868;DHT22;2960;49.142;7.768;2023-07-22T15:52:04;26.70;36.30
5868;DHT22;2960;49.142;7.768;2023-07-22T15:54:33;26.70;36.40
5868;DHT22;2960;49.142;7.768;2023-07-22T15:57:00;26.70;36.40
5868;DHT22;2960;49.142;7.768;2023-07-22T15:59:27;26.60;36.30
5868;DHT22;2960;49.142;7.768;2023-07-22T16:01:54;26.60;36.20
5868;DHT22;2960;49.142;7.768;2023-07-22T16:04:21;26.60;36.20
5868;DHT22;2960;49.142;7.768;2023-07-22T16:06:48;26.60;36.30
5868;DHT22;2960;49.142;7.768;2023-07-22T16:09:15;26.60;36.20
5868;DHT22;2960;49.142;7.768;2023-07-22T16:11:44;26.60;36.90